Time;durP1;ratioP1;P1;durP2;ratioP2;P2;SDS_P1;SDS_P2;PMS_P1;PMS_P2;Temp;Humidity;BMP_temperature;BMP_pressure;BME280_temperature;BME280_humidity;BME280_pressure;Samples;Min_cycle;Max_cycle;Signal;HPM_P1;HPM_P2
2022/07/26 00:00:19;;;;;;;3.63;3.20;;;19.60;99.90;;;;;;5110618;28;20496;-45
2022/07/26 00:02:46;;;;;;;5.03;3.80;;;19.70;99.90;;;;;;5110925;28;20515;-45
2022/07/26 00:05:14;;;;;;;4.70;3.60;;;19.80;99.90;;;;;;5110905;28;20527;-46
2022/07/26 00:07:41;;;;;;;5.40;4.10;;;19.90;99.90;;;;;;5110312;28;20562;-45
2022/07/26 00:10:08;;;;;;;4.30;3.40;;;19.90;99.90;;;;;;5110519;28;20451;-46
2022/07/26 00:12:35;;;;;;;5.57;4.20;;;19.90;99.90;;;;;;5110671;28;20872;-45
2022/07/26 00:15:03;;;;;;;6.10;4.13;;;19.80;99.90;;;;;;5110466;28;20453;-46
2022/07/26 00:17:32;;;;;;;5.73;4.37;;;19.70;99.90;;;;;;5110783;28;20454;-46
2022/07/26 00:19:59;;;;;;;4.60;4.03;;;19.70;99.90;;;;;;5110234;28;20433;-46
2022/07/26 00:22:35;;;;;;;5.73;4.73;;;19.70;99.90;;;;;;5110546;28;20488;-46
2022/07/26 00:25:04;;;;;;;4.43;3.57;;;19.70;99.90;;;;;;5110439;28;20447;-45
2022/07/26 00:27:31;;;;;;;5.60;4.17;;;19.80;99.90;;;;;;5110300;28;20967;-46
2022/07/26 00:29:58;;;;;;;4.23;3.83;;;19.50;99.90;;;;;;5110183;28;20801;-46
2022/07/26 00:32:25;;;;;;;5.77;4.23;;;19.30;99.90;;;;;;5110136;28;20829;-46
2022/07/26 00:34:54;;;;;;;6.20;4.10;;;19.30;99.90;;;;;;5110452;28;20861;-45
2022/07/26 00:37:21;;;;;;;5.63;3.63;;;19.40;99.90;;;;;;5110247;28;20911;-46
2022/07/26 00:39:48;;;;;;;5.13;4.50;;;19.50;99.90;;;;;;5110194;28;20457;-46
2022/07/26 00:42:15;;;;;;;6.40;3.93;;;19.70;99.90;;;;;;5110344;28;20455;-46
2022/07/26 00:44:44;;;;;;;5.50;3.93;;;19.80;99.90;;;;;;5110277;28;20527;-46
2022/07/26 00:47:11;;;;;;;5.80;3.93;;;19.90;99.90;;;;;;5110106;28;20471;-46
2022/07/26 00:49:38;;;;;;;5.70;3.87;;;19.90;99.90;;;;;;5110480;28;20474;-46
2022/07/26 00:52:09;;;;;;;4.57;4.03;;;19.90;99.90;;;;;;5114339;28;20439;-45
2022/07/26 00:54:37;;;;;;;7.00;4.20;;;19.90;99.90;;;;;;5114677;28;20466;-45
2022/07/26 00:57:04;;;;;;;4.83;3.70;;;19.90;99.90;;;;;;5114498;28;20930;-46
2022/07/26 00:59:31;;;;;;;5.30;3.90;;;19.90;99.90;;;;;;5114140;28;20491;-45
2022/07/26 01:01:58;;;;;;;6.37;3.50;;;20.00;99.90;;;;;;5114487;28;20584;-46
2022/07/26 01:04:26;;;;;;;5.00;4.40;;;20.00;99.90;;;;;;5114102;28;20458;-46
2022/07/26 01:06:53;;;;;;;4.67;3.53;;;20.00;99.90;;;;;;5113768;28;20470;-46
2022/07/26 01:09:22;;;;;;;4.30;3.57;;;20.10;99.90;;;;;;5114017;28;20961;-45
2022/07/26 01:11:50;;;;;;;5.10;3.43;;;20.10;99.90;;;;;;5114293;28;20503;-46
2022/07/26 01:14:20;;;;;;;5.33;3.47;;;20.20;99.90;;;;;;5113921;28;20454;-45
2022/07/26 01:16:47;;;;;;;4.93;4.00;;;20.20;99.90;;;;;;5114075;28;20442;-46
2022/07/26 01:19:14;;;;;;;7.20;4.43;;;20.20;99.90;;;;;;5114007;28;20495;-46
2022/07/26 01:21:43;;;;;;;5.10;4.50;;;20.10;99.90;;;;;;5114014;28;20491;-46
2022/07/26 01:24:10;;;;;;;5.00;4.00;;;20.10;99.90;;;;;;5113780;28;20430;-46
2022/07/26 01:26:37;;;;;;;4.97;4.47;;;20.20;99.90;;;;;;5113775;28;20489;-46
2022/07/26 01:29:04;;;;;;;5.10;4.60;;;20.20;99.90;;;;;;5113586;28;20496;-45
2022/07/26 01:31:31;;;;;;;6.50;4.50;;;20.30;99.90;;;;;;5113851;28;20446;-45
2022/07/26 01:33:58;;;;;;;5.20;4.37;;;20.40;99.90;;;;;;5113825;28;20521;-45
2022/07/26 01:36:25;;;;;;;5.70;4.90;;;20.40;99.90;;;;;;5113573;28;20447;-45
2022/07/26 01:38:54;;;;;;;6.43;4.30;;;20.40;99.90;;;;;;5113555;28;20434;-45
2022/07/26 01:41:21;;;;;;;4.60;4.20;;;20.50;99.90;;;;;;5113687;28;20788;-45
2022/07/26 01:43:48;;;;;;;5.67;4.20;;;20.30;99.90;;;;;;5113624;28;20443;-45
2022/07/26 01:46:15;;;;;;;5.63;4.10;;;20.20;99.90;;;;;;5113403;28;20474;-46
2022/07/26 01:48:42;;;;;;;5.10;4.53;;;20.10;99.90;;;;;;5113366;28;20537;-47
2022/07/26 01:51:09;;;;;;;5.40;3.57;;;20.10;99.90;;;;;;5113633;28;20435;-46
2022/07/26 01:53:36;;;;;;;8.20;5.13;;;20.00;99.90;;;;;;5113348;28;20499;-45
2022/07/26 01:56:05;;;;;;;5.20;4.53;;;19.90;99.90;;;;;;5113246;28;21017;-46
2022/07/26 01:58:32;;;;;;;4.77;4.23;;;19.80;99.90;;;;;;5113266;28;20512;-47
2022/07/26 02:00:59;;;;;;;6.43;3.87;;;19.70;99.90;;;;;;5112303;28;20442;-45
2022/07/26 02:03:26;;;;;;;5.30;4.33;;;19.70;99.90;;;;;;5112497;28;20993;-45
2022/07/26 02:05:53;;;;;;;4.73;3.57;;;19.70;99.90;;;;;;5113129;28;20851;-46
2022/07/26 02:08:20;;;;;;;4.97;4.33;;;19.80;99.90;;;;;;5112538;28;20523;-45
2022/07/26 02:11:02;;;;;;;5.50;4.37;;;19.90;99.90;;;;;;5112851;28;20515;-46
2022/07/26 02:13:33;;;;;;;4.53;3.50;;;20.00;99.90;;;;;;5113049;28;20483;-46
2022/07/26 02:16:00;;;;;;;5.07;3.90;;;20.00;99.90;;;;;;5112911;28;20546;-46
2022/07/26 02:18:29;;;;;;;5.40;4.13;;;20.10;99.90;;;;;;5112880;28;20507;-46
2022/07/26 02:20:56;;;;;;;4.77;4.00;;;20.10;99.90;;;;;;5112610;28;20443;-46
2022/07/26 02:23:24;;;;;;;4.97;4.03;;;20.20;99.90;;;;;;5112946;28;20451;-46
2022/07/26 02:25:51;;;;;;;5.20;4.40;;;20.20;99.90;;;;;;5112681;28;20466;-46
2022/07/26 02:28:18;;;;;;;4.83;3.87;;;20.20;99.90;;;;;;5112464;28;20470;-46
2022/07/26 02:30:47;;;;;;;5.40;4.17;;;20.10;99.90;;;;;;5112957;28;20535;-45
2022/07/26 02:33:15;;;;;;;4.97;4.47;;;20.10;99.90;;;;;;5112531;28;20447;-46
2022/07/26 02:35:42;;;;;;;5.33;4.83;;;20.10;99.90;;;;;;5112521;28;20479;-47
2022/07/26 02:38:12;;;;;;;5.33;4.30;;;20.10;99.90;;;;;;5112741;28;20931;-46
2022/07/26 02:40:40;;;;;;;6.30;4.10;;;20.10;99.90;;;;;;5112347;28;20439;-48
2022/07/26 02:43:08;;;;;;;5.73;3.97;;;19.80;99.90;;;;;;5112528;28;20451;-47
2022/07/26 02:45:35;;;;;;;6.20;4.67;;;19.50;99.90;;;;;;5112217;28;20527;-46
2022/07/26 02:48:04;;;;;;;5.77;5.27;;;19.30;99.90;;;;;;5112036;28;20466;-46
2022/07/26 02:50:32;;;;;;;6.53;4.90;;;19.20;99.90;;;;;;5112063;28;21060;-46
2022/07/26 02:52:58;;;;;;;6.17;4.57;;;19.10;99.90;;;;;;5112327;28;20439;-45
2022/07/26 02:55:27;;;;;;;5.13;4.60;;;19.30;99.90;;;;;;5112089;28;20471;-46
2022/07/26 02:57:54;;;;;;;5.70;4.60;;;19.40;99.90;;;;;;5112030;28;20902;-48
2022/07/26 03:00:23;;;;;;;5.00;4.07;;;19.50;99.90;;;;;;5111663;28;20431;-47
2022/07/26 03:02:51;;;;;;;8.00;4.57;;;19.50;99.90;;;;;;5112028;28;20453;-47
2022/07/26 03:05:20;;;;;;;5.13;4.17;;;19.50;99.90;;;;;;5112027;28;20563;-46
2022/07/26 03:07:47;;;;;;;5.20;4.70;;;19.50;99.90;;;;;;5111343;28;21051;-46
2022/07/26 03:10:15;;;;;;;6.47;4.67;;;19.50;99.90;;;;;;5111605;28;20453;-45
2022/07/26 03:12:42;;;;;;;7.13;4.90;;;19.50;99.90;;;;;;5111247;28;20791;-45
2022/07/26 03:15:10;;;;;;;6.27;4.77;;;19.40;99.90;;;;;;5111655;28;21024;-46
2022/07/26 03:17:37;;;;;;;4.43;3.80;;;19.40;99.90;;;;;;5111862;28;20443;-47
2022/07/26 03:20:05;;;;;;;3.63;2.60;;;19.40;99.90;;;;;;5111553;28;20443;-46
2022/07/26 03:22:33;;;;;;;3.80;3.20;;;19.50;99.90;;;;;;5111738;28;20500;-46
2022/07/26 03:25:00;;;;;;;4.70;3.20;;;19.60;99.90;;;;;;5112010;28;20467;-46
2022/07/26 03:27:27;;;;;;;5.97;3.20;;;19.60;99.90;;;;;;5111385;28;20467;-46
2022/07/26 03:29:54;;;;;;;5.47;4.47;;;19.70;99.90;;;;;;5111298;28;20447;-45
2022/07/26 03:32:21;;;;;;;6.27;4.17;;;19.80;99.90;;;;;;5111559;28;20477;-45
2022/07/26 03:34:48;;;;;;;4.80;3.50;;;19.80;99.90;;;;;;5160914;22;20458;-48
2022/07/26 03:37:16;;;;;;;4.50;3.37;;;19.90;99.90;;;;;;5051091;28;20511;-48
2022/07/26 03:39:44;;;;;;;5.10;4.47;;;19.90;99.90;;;;;;5050207;28;20667;-48
2022/07/26 03:42:11;;;;;;;4.90;3.50;;;19.90;99.90;;;;;;5050713;28;20943;-49
2022/07/26 03:44:38;;;;;;;5.20;4.17;;;19.90;99.90;;;;;;5050585;28;20441;-48
2022/07/26 03:47:05;;;;;;;4.73;4.20;;;19.90;99.90;;;;;;5050388;28;20469;-50
2022/07/26 03:49:32;;;;;;;5.50;4.00;;;19.90;99.90;;;;;;5050385;28;20454;-48
2022/07/26 03:51:59;;;;;;;9.00;4.07;;;19.80;99.90;;;;;;5050530;28;20810;-52
2022/07/26 03:54:26;;;;;;;4.10;3.70;;;19.80;99.90;;;;;;5050479;28;20887;-48
2022/07/26 03:56:54;;;;;;;4.00;3.43;;;19.80;99.90;;;;;;5050397;28;20433;-51
2022/07/26 03:59:22;;;;;;;4.93;3.50;;;19.80;99.90;;;;;;5050074;28;20520;-48
2022/07/26 04:01:50;;;;;;;3.37;2.90;;;19.80;99.90;;;;;;5050183;28;20433;-48
2022/07/26 04:04:18;;;;;;;3.20;2.90;;;19.70;99.90;;;;;;5050361;28;20499;-49
2022/07/26 04:06:45;;;;;;;3.77;3.40;;;19.80;99.90;;;;;;5049732;28;20531;-48
2022/07/26 04:09:13;;;;;;;4.27;3.63;;;19.80;99.90;;;;;;5050077;28;20495;-50
2022/07/26 04:11:41;;;;;;;4.97;3.87;;;19.80;99.90;;;;;;5050444;28;20519;-51
2022/07/26 04:14:09;;;;;;;3.93;3.27;;;19.90;99.90;;;;;;5050085;28;20517;-48
2022/07/26 04:16:36;;;;;;;3.13;2.40;;;20.00;99.90;;;;;;5050063;28;20527;-48
2022/07/26 04:19:03;;;;;;;3.63;2.80;;;20.10;99.90;;;;;;5049903;28;20472;-50
2022/07/26 04:21:30;;;;;;;4.10;3.57;;;20.10;99.90;;;;;;5050132;28;20445;-48
2022/07/26 04:23:57;;;;;;;5.30;4.47;;;20.10;99.90;;;;;;5049820;28;20473;-50
2022/07/26 04:26:25;;;;;;;5.43;4.53;;;20.10;99.90;;;;;;5049657;28;20465;-48
2022/07/26 04:28:52;;;;;;;4.93;4.40;;;20.10;99.90;;;;;;5049533;28;20465;-48
2022/07/26 04:31:20;;;;;;;5.33;4.83;;;20.10;99.90;;;;;;5049836;28;20434;-48
2022/07/26 04:33:47;;;;;;;5.07;3.70;;;20.00;99.90;;;;;;5049960;28;20445;-48
2022/07/26 04:36:15;;;;;;;14.77;5.00;;;20.10;99.90;;;;;;5049722;28;20883;-48
2022/07/26 04:38:42;;;;;;;4.60;4.07;;;20.00;99.90;;;;;;5049726;28;20446;-52
2022/07/26 04:41:09;;;;;;;4.23;3.80;;;20.00;99.90;;;;;;5049703;28;20475;-48
2022/07/26 04:43:36;;;;;;;3.73;2.60;;;19.90;99.90;;;;;;5049738;28;20927;-49
2022/07/26 04:46:03;;;;;;;3.70;2.90;;;19.70;99.90;;;;;;5049737;28;20484;-50
2022/07/26 04:48:31;;;;;;;3.43;2.80;;;19.70;99.90;;;;;;5049616;28;20508;-46
2022/07/26 04:50:59;;;;;;;3.67;2.87;;;19.70;99.90;;;;;;5049718;28;20457;-48
2022/07/26 04:53:26;;;;;;;4.70;4.00;;;19.70;99.90;;;;;;5049660;28;20797;-50
2022/07/26 04:55:53;;;;;;;4.37;3.60;;;19.70;99.90;;;;;;5049666;28;20469;-48
2022/07/26 04:58:20;;;;;;;6.70;4.30;;;19.60;99.90;;;;;;5049457;28;20437;-50
2022/07/26 05:00:47;;;;;;;5.87;3.50;;;19.70;99.90;;;;;;5049561;28;20942;-48
2022/07/26 05:03:14;;;;;;;5.17;2.60;;;19.70;99.90;;;;;;5049809;28;20453;-49
2022/07/26 05:05:42;;;;;;;5.53;2.10;;;19.80;99.90;;;;;;5049553;28;20511;-48
2022/07/26 05:08:09;;;;;;;4.07;2.30;;;19.70;99.90;;;;;;5049073;28;20477;-44
2022/07/26 05:10:37;;;;;;;4.83;2.20;;;19.80;99.90;;;;;;5049322;28;20456;-50
2022/07/26 05:13:06;;;;;;;2.87;2.33;;;19.90;99.90;;;;;;5049337;28;20457;-49
2022/07/26 05:15:34;;;;;;;3.60;2.43;;;19.90;99.90;;;;;;5048864;28;20486;-48
2022/07/26 05:18:02;;;;;;;2.63;2.40;;;19.90;99.90;;;;;;5049208;28;20931;-48
2022/07/26 05:20:29;;;;;;;6.13;3.20;;;19.90;99.90;;;;;;5048783;28;20445;-44
2022/07/26 05:22:58;;;;;;;4.20;3.20;;;20.00;99.90;;;;;;5049347;28;20966;-48
2022/07/26 05:25:26;;;;;;;2.77;1.97;;;20.00;99.90;;;;;;5049245;28;20853;-48
2022/07/26 05:27:53;;;;;;;2.50;1.83;;;19.90;99.90;;;;;;5049008;28;20521;-48
2022/07/26 05:30:20;;;;;;;2.10;1.50;;;19.80;99.90;;;;;;5048602;28;20449;-50
2022/07/26 05:32:47;;;;;;;2.77;1.30;;;19.70;99.90;;;;;;5049123;28;20476;-48
2022/07/26 05:35:14;;;;;;;3.40;1.40;;;19.70;99.90;;;;;;5048675;28;20469;-49
2022/07/26 05:37:42;;;;;;;1.93;1.50;;;19.50;99.90;;;;;;5052822;28;20473;-48
2022/07/26 05:40:11;;;;;;;3.00;1.60;;;19.40;99.90;;;;;;5051757;28;20440;-50
2022/07/26 05:42:38;;;;;;;2.50;2.10;;;19.40;99.90;;;;;;5052937;28;20498;-51
2022/07/26 05:45:06;;;;;;;2.20;1.50;;;19.30;99.90;;;;;;5052857;28;20492;-48
2022/07/26 05:47:34;;;;;;;2.53;1.40;;;19.20;99.90;;;;;;5052904;28;20522;-49
2022/07/26 05:50:01;;;;;;;3.73;1.67;;;19.10;99.90;;;;;;5052591;28;20475;-48
2022/07/26 05:52:28;;;;;;;4.00;1.60;;;19.10;99.90;;;;;;5053374;28;20456;-48
2022/07/26 05:54:55;;;;;;;2.83;1.60;;;19.10;99.90;;;;;;5052680;28;20539;-51
2022/07/26 05:57:23;;;;;;;2.73;1.80;;;19.10;99.90;;;;;;5052779;28;20499;-48
2022/07/26 05:59:50;;;;;;;2.03;1.70;;;19.20;99.90;;;;;;5052527;28;20856;-48
2022/07/26 06:02:17;;;;;;;5.27;2.73;;;19.20;99.90;;;;;;5052772;28;20446;-50
2022/07/26 06:04:45;;;;;;;3.20;1.70;;;19.30;99.90;;;;;;5052635;28;20457;-48
2022/07/26 06:07:12;;;;;;;2.53;2.00;;;19.20;99.90;;;;;;5052692;28;20604;-48
2022/07/26 06:09:39;;;;;;;4.13;2.03;;;19.20;99.90;;;;;;5052485;28;20469;-48
2022/07/26 06:12:06;;;;;;;2.30;1.90;;;19.00;99.90;;;;;;5052504;28;20442;-51
2022/07/26 06:14:35;;;;;;;3.17;1.47;;;18.90;99.90;;;;;;5052393;28;20933;-50
2022/07/26 06:17:03;;;;;;;2.83;2.00;;;19.00;99.90;;;;;;5052375;28;20457;-51
2022/07/26 06:19:31;;;;;;;2.83;1.90;;;19.10;99.90;;;;;;5052158;28;20445;-48
2022/07/26 06:21:58;;;;;;;4.10;2.10;;;19.20;99.90;;;;;;5052579;28;20429;-48
2022/07/26 06:24:25;;;;;;;3.07;2.20;;;19.30;99.90;;;;;;5052303;28;20511;-49
2022/07/26 06:26:54;;;;;;;4.00;2.57;;;19.40;99.90;;;;;;5052171;28;20473;-49
2022/07/26 06:29:21;;;;;;;3.37;2.17;;;19.50;99.90;;;;;;5051748;28;20469;-51
2022/07/26 06:31:50;;;;;;;2.80;1.83;;;19.40;99.90;;;;;;5052127;28;20449;-50
2022/07/26 06:34:18;;;;;;;3.63;2.20;;;19.40;99.90;;;;;;5051921;28;20437;-50
2022/07/26 06:36:45;;;;;;;4.07;2.20;;;19.50;99.90;;;;;;5052284;28;20476;-48
2022/07/26 06:39:12;;;;;;;2.50;1.70;;;19.50;99.90;;;;;;5051769;28;20495;-48
2022/07/26 06:41:39;;;;;;;3.50;2.20;;;19.60;99.90;;;;;;5051417;28;20438;-49
2022/07/26 06:44:06;;;;;;;3.00;2.20;;;19.60;99.90;;;;;;5051914;28;20498;-52
2022/07/26 06:46:33;;;;;;;2.60;2.13;;;19.80;99.90;;;;;;5051741;28;20465;-48
2022/07/26 06:49:01;;;;;;;2.70;1.80;;;19.90;99.90;;;;;;5050883;28;20507;-52
2022/07/26 06:51:28;;;;;;;3.40;2.83;;;19.90;99.90;;;;;;5052087;28;20450;-50
2022/07/26 06:53:56;;;;;;;4.10;2.57;;;19.90;99.90;;;;;;5051854;28;20484;-49
2022/07/26 06:56:23;;;;;;;3.50;2.80;;;19.80;99.90;;;;;;5051622;28;20813;-51
2022/07/26 06:58:50;;;;;;;3.53;2.47;;;19.80;99.90;;;;;;5051427;28;20487;-46
2022/07/26 07:01:17;;;;;;;3.60;2.27;;;19.70;99.90;;;;;;5052143;28;20437;-53
2022/07/26 07:03:45;;;;;;;2.83;2.20;;;19.80;99.90;;;;;;5051761;28;20468;-50
2022/07/26 07:06:14;;;;;;;3.60;2.20;;;19.90;99.90;;;;;;5051825;28;20485;-48
2022/07/26 07:08:41;;;;;;;4.17;2.87;;;19.90;99.90;;;;;;5051300;28;20477;-48
2022/07/26 07:11:08;;;;;;;3.43;2.40;;;19.90;99.90;;;;;;5051306;28;20453;-49
2022/07/26 07:13:35;;;;;;;2.80;2.17;;;19.80;99.90;;;;;;5051495;28;20519;-50
2022/07/26 07:16:02;;;;;;;2.70;2.30;;;19.90;99.90;;;;;;5051381;28;20527;-50
2022/07/26 07:18:29;;;;;;;3.30;2.53;;;19.80;99.90;;;;;;5051223;28;20499;-50
2022/07/26 07:20:56;;;;;;;4.03;2.67;;;19.80;99.90;;;;;;5051194;28;20457;-48
2022/07/26 07:23:24;;;;;;;3.70;2.50;;;19.90;99.90;;;;;;5051197;28;20445;-50
2022/07/26 07:25:51;;;;;;;3.03;2.53;;;19.90;99.90;;;;;;5051047;28;20527;-48
2022/07/26 07:28:18;;;;;;;2.67;2.07;;;20.00;99.90;;;;;;5050979;28;20461;-48
2022/07/26 07:30:46;;;;;;;6.97;2.50;;;20.00;99.90;;;;;;5050867;28;20442;-49
2022/07/26 07:33:13;;;;;;;2.47;2.10;;;20.10;99.90;;;;;;5050906;28;20479;-50
2022/07/26 07:35:41;;;;;;;3.30;2.37;;;20.10;99.90;;;;;;5050641;28;20465;-50
2022/07/26 07:38:08;;;;;;;3.27;2.30;;;20.10;99.90;;;;;;5050819;28;20527;-48
2022/07/26 07:40:36;;;;;;;3.40;2.53;;;20.10;99.90;;;;;;5050164;28;20445;-52
2022/07/26 07:43:04;;;;;;;4.67;2.70;;;20.20;99.90;;;;;;5050778;28;20450;-49
2022/07/26 07:45:31;;;;;;;3.37;3.07;;;20.20;99.90;;;;;;5050735;28;20473;-49
2022/07/26 07:47:58;;;;;;;4.03;2.60;;;20.10;99.90;;;;;;5050499;28;20434;-50
2022/07/26 07:50:25;;;;;;;4.13;3.73;;;20.00;99.90;;;;;;5050560;28;20446;-48
2022/07/26 07:52:52;;;;;;;3.60;2.97;;;20.00;99.90;;;;;;5050487;28;20461;-50
2022/07/26 07:55:19;;;;;;;3.60;2.83;;;20.00;99.90;;;;;;5050403;28;20523;-46
2022/07/26 07:57:47;;;;;;;4.20;3.40;;;20.00;99.90;;;;;;5050779;28;20859;-53
2022/07/26 08:00:17;;;;;;;4.60;2.77;;;19.90;99.90;;;;;;5050038;28;20453;-52
2022/07/26 08:02:45;;;;;;;4.50;3.47;;;19.90;99.90;;;;;;5050271;28;20447;-51
2022/07/26 08:05:12;;;;;;;3.90;3.30;;;20.00;99.90;;;;;;5050176;28;20460;-48
2022/07/26 08:07:39;;;;;;;4.10;3.17;;;20.10;99.90;;;;;;5050289;28;20468;-51
2022/07/26 08:10:07;;;;;;;5.87;2.97;;;20.10;99.90;;;;;;5049817;28;21271;-49
2022/07/26 08:12:34;;;;;;;5.30;3.07;;;20.20;99.90;;;;;;5050433;28;20493;-48
2022/07/26 08:15:03;;;;;;;5.37;2.90;;;20.20;99.90;;;;;;5050188;28;20457;-48
2022/07/26 08:17:30;;;;;;;5.63;3.60;;;20.20;99.90;;;;;;5050154;28;20910;-51
2022/07/26 08:19:57;;;;;;;3.87;3.47;;;20.30;99.90;;;;;;5050056;28;20445;-48
2022/07/26 08:22:24;;;;;;;22.33;5.57;;;20.30;99.90;;;;;;5050212;28;20548;-52
2022/07/26 08:24:51;;;;;;;3.63;3.23;;;20.30;99.90;;;;;;5050172;28;20484;-48
2022/07/26 08:27:18;;;;;;;3.80;2.80;;;20.20;99.90;;;;;;5049959;28;20781;-50
2022/07/26 08:29:45;;;;;;;3.97;3.40;;;20.20;99.90;;;;;;5049690;28;20465;-49
2022/07/26 08:32:14;;;;;;;4.67;2.73;;;20.20;99.90;;;;;;5050051;28;20499;-53
2022/07/26 08:34:41;;;;;;;3.37;2.97;;;20.30;99.90;;;;;;5049847;28;20465;-49
2022/07/26 08:37:08;;;;;;;3.53;2.83;;;20.40;99.90;;;;;;5049963;28;20495;-49
2022/07/26 08:39:35;;;;;;;5.00;3.43;;;20.50;99.90;;;;;;5049794;28;20837;-49
2022/07/26 08:42:03;;;;;;;4.10;2.70;;;20.50;99.90;;;;;;5049569;28;20863;-49
2022/07/26 08:44:30;;;;;;;5.60;2.90;;;20.50;99.90;;;;;;5049489;28;20438;-51
2022/07/26 08:46:57;;;;;;;11.93;5.67;;;20.50;99.90;;;;;;5048824;28;20477;-49
2022/07/26 08:49:25;;;;;;;3.47;3.17;;;20.60;99.90;;;;;;5049650;28;21013;-48
2022/07/26 08:51:53;;;;;;;4.10;2.63;;;20.60;99.90;;;;;;5049879;28;20862;-49
2022/07/26 08:54:20;;;;;;;3.60;2.47;;;20.70;99.90;;;;;;5049769;28;20480;-50
2022/07/26 08:56:51;;;;;;;3.73;2.83;;;20.70;99.90;;;;;;5049479;28;20872;-50
2022/07/26 08:59:19;;;;;;;3.87;2.80;;;20.50;99.90;;;;;;5049027;28;20456;-51
2022/07/26 09:01:53;;;;;;;9.47;5.37;;;20.50;99.90;;;;;;5049831;28;20446;-49
2022/07/26 09:04:22;;;;;;;5.40;4.03;;;20.50;99.90;;;;;;5049453;28;20518;-52
2022/07/26 09:07:02;;;;;;;3.20;2.47;;;20.70;99.90;;;;;;5049607;28;20465;-50
2022/07/26 09:09:30;;;;;;;12.27;5.57;;;20.70;99.90;;;;;;5049398;28;20523;-50
2022/07/26 09:11:58;;;;;;;20.40;7.60;;;20.80;99.90;;;;;;5052476;28;20514;-51
2022/07/26 09:14:36;;;;;;;3.20;2.40;;;20.90;99.90;;;;;;5053603;28;20441;-50
2022/07/26 09:17:04;;;;;;;4.07;2.53;;;21.00;99.90;;;;;;5053603;28;20503;-51
2022/07/26 09:19:31;;;;;;;3.57;2.30;;;21.20;99.90;;;;;;5052112;28;20448;-50
2022/07/26 09:22:07;;;;;;;3.07;2.27;;;21.30;99.90;;;;;;5053015;28;20491;-49
2022/07/26 09:24:35;;;;;;;3.40;2.20;;;21.40;99.90;;;;;;5053325;28;20440;-51
2022/07/26 09:27:06;;;;;;;3.13;2.10;;;21.30;99.90;;;;;;5053168;28;20507;-50
2022/07/26 09:29:43;;;;;;;3.13;2.17;;;21.30;99.90;;;;;;5053127;28;20457;-49
2022/07/26 09:32:17;;;;;;;2.47;1.97;;;21.30;99.90;;;;;;5053320;28;20498;-52
2022/07/26 09:34:45;;;;;;;3.93;3.53;;;21.30;99.90;;;;;;5053155;28;20449;-48
2022/07/26 09:37:13;;;;;;;2.80;2.60;;;21.30;99.90;;;;;;5127102;22;20476;-46
2022/07/26 09:39:57;;;;;;;3.47;2.40;;;21.30;99.90;;;;;;5072213;28;20533;-47
2022/07/26 09:42:25;;;;;;;3.50;2.40;;;21.40;99.90;;;;;;5072838;28;20444;-46
2022/07/26 09:44:52;;;;;;;4.30;2.70;;;21.60;99.90;;;;;;5073021;28;20511;-46
2022/07/26 09:47:20;;;;;;;4.03;2.70;;;21.80;99.90;;;;;;5072792;28;20549;-46
2022/07/26 09:49:48;;;;;;;4.60;2.80;;;21.90;99.90;;;;;;5072599;28;20513;-49
2022/07/26 09:52:18;;;;;;;3.43;3.13;;;22.00;99.90;;;;;;5072984;28;20429;-46
2022/07/26 09:54:46;;;;;;;3.40;2.93;;;22.10;99.90;;;;;;5073122;28;20453;-46
2022/07/26 09:57:16;;;;;;;2.37;2.00;;;22.30;99.90;;;;;;5072589;28;20457;-45
2022/07/26 09:59:44;;;;;;;2.43;2.17;;;22.40;99.90;;;;;;5072821;28;20878;-50
2022/07/26 10:02:12;;;;;;;3.20;2.90;;;22.60;99.90;;;;;;5072915;28;20447;-46
2022/07/26 10:04:40;;;;;;;3.20;2.60;;;22.60;99.90;;;;;;5072849;28;20483;-45
2022/07/26 10:07:08;;;;;;;4.20;3.10;;;22.60;99.90;;;;;;5071131;28;20482;-46
2022/07/26 10:09:44;;;;;;;3.00;2.30;;;22.70;99.90;;;;;;5071662;28;20557;-46
2022/07/26 10:12:14;;;;;;;2.57;2.00;;;22.80;99.90;;;;;;5066563;28;20455;-48
2022/07/26 10:14:44;;;;;;;4.33;2.70;;;23.00;99.90;;;;;;5072650;28;20444;-51
2022/07/26 10:17:44;;;;;;;2.90;2.00;;;23.10;99.90;;;;;;5072145;28;20462;-48
2022/07/26 10:20:30;;;;;;;3.73;2.07;;;23.20;99.90;;;;;;5062914;28;20441;-48
2022/07/26 10:22:57;;;;;;;3.70;2.43;;;23.30;99.90;;;;;;5067854;28;20437;-48
2022/07/26 10:25:48;;;;;;;3.93;2.30;;;23.40;99.90;;;;;;5070863;28;20863;-45
2022/07/26 10:28:35;;;;;;;2.43;2.10;;;23.40;99.90;;;;;;5071680;28;20463;-47
2022/07/26 10:31:28;;;;;;;2.27;1.60;;;23.40;99.90;;;;;;5062999;28;20611;-48
2022/07/26 10:33:56;;;;;;;2.37;1.80;;;23.40;99.90;;;;;;5069066;28;20424;-48
2022/07/26 10:36:32;;;;;;;2.73;2.03;;;23.40;99.90;;;;;;5071847;28;20468;-51
2022/07/26 10:39:08;;;;;;;2.20;2.00;;;23.30;99.90;;;;;;5071756;28;20916;-46
2022/07/26 10:41:42;;;;;;;2.33;1.77;;;23.30;99.90;;;;;;5071553;28;20514;-46
2022/07/26 10:44:21;;;;;;;3.20;2.20;;;23.20;99.90;;;;;;5069830;28;21046;-46
2022/07/26 10:47:14;;;;;;;3.37;2.40;;;23.20;99.90;;;;;;5069983;28;20553;-48
2022/07/26 10:49:43;;;;;;;2.90;2.33;;;23.10;99.90;;;;;;5071084;28;20471;-47
2022/07/26 10:52:13;;;;;;;4.13;2.50;;;23.10;99.90;;;;;;5071792;28;20445;-47
2022/07/26 10:55:08;;;;;;;4.60;3.37;;;23.20;99.90;;;;;;5071917;28;20444;-49
2022/07/26 10:57:38;;;;;;;2.70;2.50;;;23.30;99.90;;;;;;5071870;28;20506;-48
2022/07/26 11:00:11;;;;;;;2.97;2.27;;;23.30;99.90;;;;;;5071509;28;20449;-46
2022/07/26 11:02:38;;;;;;;4.00;2.90;;;23.20;99.90;;;;;;5071000;28;20444;-47
2022/07/26 11:05:13;;;;;;;3.60;2.37;;;23.10;99.90;;;;;;5070028;28;20437;-49
2022/07/26 11:08:07;;;;;;;2.93;2.40;;;23.00;99.90;;;;;;5070137;28;20517;-51
2022/07/26 11:10:36;;;;;;;2.97;1.93;;;23.00;99.90;;;;;;5055353;28;21019;-49
2022/07/26 11:13:14;;;;;;;2.07;1.47;;;23.10;99.90;;;;;;5069834;28;20444;-47
2022/07/26 11:15:43;;;;;;;2.47;2.00;;;23.20;99.90;;;;;;5069751;28;20472;-48
2022/07/26 11:18:20;;;;;;;2.83;1.67;;;23.30;99.90;;;;;;5070270;28;20444;-49
2022/07/26 11:20:51;;;;;;;2.13;1.67;;;23.40;99.90;;;;;;5070950;28;20475;-50
2022/07/26 11:23:33;;;;;;;2.93;2.20;;;23.40;99.90;;;;;;5071276;28;20454;-46
2022/07/26 11:26:05;;;;;;;3.00;2.23;;;23.40;99.90;;;;;;5071020;28;20848;-46
2022/07/26 11:28:49;;;;;;;3.37;1.90;;;23.40;99.90;;;;;;5070980;28;20551;-46
2022/07/26 11:31:17;;;;;;;3.10;2.27;;;23.40;99.90;;;;;;5071038;28;20894;-46
2022/07/26 11:33:47;;;;;;;4.00;2.20;;;23.40;99.90;;;;;;5070780;28;20452;-46
2022/07/26 11:36:15;;;;;;;2.83;2.23;;;23.40;99.90;;;;;;5070871;28;20496;-48
2022/07/26 11:38:47;;;;;;;3.03;1.97;;;23.30;99.90;;;;;;5070667;28;20502;-50
2022/07/26 11:41:15;;;;;;;2.63;1.90;;;23.20;99.90;;;;;;5070449;28;20513;-47
2022/07/26 11:43:44;;;;;;;2.10;1.33;;;23.10;99.90;;;;;;5070730;28;20804;-46
2022/07/26 11:46:11;;;;;;;2.00;1.60;;;22.90;99.90;;;;;;5070632;28;20526;-48
2022/07/26 11:48:44;;;;;;;3.70;2.63;;;22.80;99.90;;;;;;5070450;28;20477;-47
2022/07/26 11:51:12;;;;;;;2.80;1.67;;;22.70;99.90;;;;;;5070532;28;20890;-46
2022/07/26 11:53:39;;;;;;;2.50;2.03;;;22.70;99.90;;;;;;5070476;28;20472;-46
2022/07/26 11:56:14;;;;;;;3.73;2.13;;;22.80;99.90;;;;;;5070513;28;20885;-46
2022/07/26 11:58:42;;;;;;;3.20;1.70;;;22.70;99.90;;;;;;5070142;28;20543;-47
2022/07/26 12:01:12;;;;;;;3.77;2.67;;;22.70;99.90;;;;;;5070179;28;20518;-47
2022/07/26 12:03:42;;;;;;;3.00;2.27;;;23.00;99.90;;;;;;5070351;28;20456;-47
2022/07/26 12:06:11;;;;;;;2.70;2.37;;;23.10;99.90;;;;;;5070277;28;20514;-45
2022/07/26 12:08:40;;;;;;;3.30;2.40;;;23.20;99.90;;;;;;5070164;28;20551;-47
2022/07/26 12:11:07;;;;;;;3.30;2.53;;;23.30;99.90;;;;;;5069993;28;20930;-47
2022/07/26 12:13:56;;;;;;;3.57;2.30;;;23.30;99.90;;;;;;5069968;28;20459;-46
2022/07/26 12:16:44;;;;;;;4.03;2.80;;;23.40;99.90;;;;;;5070118;28;20460;-50
2022/07/26 12:19:25;;;;;;;4.70;2.70;;;23.40;99.90;;;;;;5069975;28;20448;-46
2022/07/26 12:21:54;;;;;;;4.07;2.90;;;23.40;99.90;;;;;;5070159;28;20468;-46
2022/07/26 12:24:39;;;;;;;2.80;2.20;;;23.40;99.90;;;;;;5070071;28;20994;-46
2022/07/26 12:27:08;;;;;;;4.27;2.50;;;23.50;99.90;;;;;;5070039;28;20715;-47
2022/07/26 12:29:36;;;;;;;3.93;2.27;;;23.60;99.90;;;;;;5069718;28;20443;-47
2022/07/26 12:32:13;;;;;;;3.17;2.50;;;23.60;99.90;;;;;;5069745;28;20439;-48
2022/07/26 12:34:42;;;;;;;3.10;2.80;;;23.70;99.90;;;;;;5069970;28;20432;-46
2022/07/26 12:37:11;;;;;;;4.47;3.80;;;23.70;99.90;;;;;;5069594;28;20475;-46
2022/07/26 12:39:38;;;;;;;2.63;2.30;;;23.80;99.90;;;;;;5069604;28;20453;-47
2022/07/26 12:42:25;;;;;;;3.80;2.50;;;23.90;99.90;;;;;;5069757;28;20448;-48
2022/07/26 12:44:52;;;;;;;3.90;2.77;;;23.80;99.90;;;;;;5069939;28;20529;-49
2022/07/26 12:47:20;;;;;;;3.23;2.80;;;23.80;99.90;;;;;;5069225;28;20487;-46
2022/07/26 12:49:48;;;;;;;4.10;2.67;;;23.70;99.90;;;;;;5069365;28;20893;-46
2022/07/26 12:52:17;;;;;;;2.67;2.40;;;23.60;99.90;;;;;;5069714;28;20455;-46
2022/07/26 12:54:46;;;;;;;3.10;2.40;;;23.60;99.90;;;;;;5069635;28;20449;-46